Pagrindinis puslapis
METAR-TAF:

METAR-TAF

Oro uostai :

Stokholmas-Arlanda, Švedija

platuma: 59-39N, ilguma: 017-57E, Aukštis: 38 m

Dabartinis oras

Ataskaita buvo paskelbta 15 minutes, ne 11:50 UTC
Vėjas 5 kt iš Vakarų/Pietvakarių
Temperatūra -1°C
Drėgmė 80%
Slėgis 1027 hPa
Matomumas 10 km arba daugiau
nėra debesų žemiau 1500 m ir nėra kamuolinių lietaus debesų

METAR: ESSA 271150Z 24005KT CAVOK M01/M04 Q1027 NOSIG

Laikas: 13:05 (12:05 UTC)

Prognozė

Ataskaita buvo paskelbta 35 minutes, ne 11:30 UTC
Prognozė galioja nuo 27 metu 12 UTC su 28 metu 12 UTC
Vėjas 5 kt iš Pietvakarių
Matomumas 10 km arba daugiau
nėra debesų žemiau 1500 m ir nėra kamuolinių lietaus debesų
Tapsmas
nuo 28 metu 04 UTC su 28 metu 06 UTC
Su prošvaistėmis ne aukštis 1200 ft
Tikimybė 40%
nuo 28 metu 06 UTC su 28 metu 10 UTC
Su prošvaistėmis ne aukštis 800 ft
Tapsmas
nuo 28 metu 11 UTC su 28 metu 12 UTC
Išsisklaidę debesys ne aukštis 2000 ft

TAF: ESSA 271130Z 2712/2812 22005KT CAVOK BECMG 2804/2806 BKN012 PROB40 2806/2810 BKN008 BECMG 2811/2812 SCT020

Orai ataskaitas ir orų prognozės (METAR, TAF).

turimą stotys yra geltonos ir raudonos taškus žemėlapyje.

Perkelti pele per norėdami pamatyti stoties vardą.

Tada spustelėkite, norėdami matyti oro stebėjimo ir prognozės.

Norėdami pakeisti žemėlapį: spustelėkite ant žalios mygtukų su juodo kryžiaus žemyn,; žalią mygtuką su brūkšneliu, jei norite nutolinti; arba žalių rodyklių gretimoms žemėlapius.


METAR-TAF: